Time;durP1;ratioP1;P1;durP2;ratioP2;P2;SDS_P1;SDS_P2;PMS_P1;PMS_P2;Temp;Humidity;BMP_temperature;BMP_pressure;BME280_temperature;BME280_humidity;BME280_pressure;Samples;Min_cycle;Max_cycle;Signal;HPM_P1;HPM_P2
2021/12/22 00:00:30;;;;;;;14.05;4.95;;;-2.20;99.90;;;;;;4806906;29;20055;-88
2021/12/22 00:02:57;;;;;;;5.38;4.22;;;-2.20;99.90;;;;;;4793708;29;20145;-88
2021/12/22 00:05:25;;;;;;;;;;;-1.60;99.90;;;;;;4791227;29;20107;-88
2021/12/22 00:07:52;;;;;;;3.00;2.78;;;-2.30;99.90;;;;;;4808841;29;19924;-88
2021/12/22 00:10:19;;;;;;;3.83;2.83;;;-1.70;99.90;;;;;;4821393;29;20050;-88
2021/12/22 00:12:46;;;;;;;6.60;4.47;;;-1.90;99.90;;;;;;4804825;29;20049;-93
2021/12/22 00:15:13;;;;;;;6.80;4.85;;;-2.40;99.90;;;;;;4810226;29;20410;-88
2021/12/22 00:17:38;;;;;;;4.50;3.75;;;-2.50;99.90;;;;;;4797030;29;20133;-88
2021/12/22 00:20:06;;;;;;;8.00;4.93;;;-2.50;99.90;;;;;;4817748;29;20476;-88
2021/12/22 00:22:32;;;;;;;5.60;3.40;;;-2.60;99.90;;;;;;4794002;29;20046;-88
2021/12/22 00:24:58;;;;;;;5.63;4.13;;;-1.60;99.90;;;;;;4819045;29;20387;-88
2021/12/22 00:27:24;;;;;;;8.30;4.65;;;-2.60;99.90;;;;;;4778105;29;20054;-88
2021/12/22 00:29:51;;;;;;;9.50;4.28;;;-2.60;99.90;;;;;;4780976;29;20046;-89
2021/12/22 00:32:18;;;;;;;4.55;3.70;;;-2.70;99.90;;;;;;4794986;29;20065;-88
2021/12/22 00:34:49;;;;;;;3.38;2.60;;;-2.70;99.90;;;;;;4797543;29;20116;-88
2021/12/22 00:37:19;;;;;;;5.47;4.40;;;-1.90;99.90;;;;;;4821323;29;20061;-88
2021/12/22 00:39:45;;;;;;;7.10;4.30;;;-2.70;99.90;;;;;;4843119;29;20137;-87
2021/12/22 00:42:12;;;;;;;5.65;3.13;;;-2.70;99.90;;;;;;4797819;29;20081;-88
2021/12/22 00:44:39;;;;;;;8.55;4.78;;;-1.80;99.90;;;;;;4838116;29;20109;-88
2021/12/22 00:47:04;;;;;;;;;;;-2.70;99.90;;;;;;4830309;29;20446;-88
2021/12/22 00:49:30;;;;;;;5.55;3.97;;;-2.80;99.90;;;;;;4835995;29;19966;-88
2021/12/22 00:51:58;;;;;;;6.75;3.85;;;-2.80;99.90;;;;;;4827774;29;20057;-88
2021/12/22 00:54:24;;;;;;;5.30;4.00;;;-2.80;99.90;;;;;;4820687;29;20041;-88
2021/12/22 00:56:50;;;;;;;8.43;5.50;;;-2.80;99.90;;;;;;4833136;29;20061;-88
2021/12/22 00:59:18;;;;;;;7.88;4.57;;;-2.90;99.90;;;;;;4824728;29;20328;-88
2021/12/22 01:01:45;;;;;;;8.02;3.53;;;-2.90;99.90;;;;;;4827241;29;20056;-88
2021/12/22 01:04:11;;;;;;;3.88;3.08;;;-2.90;99.90;;;;;;4821952;29;20053;-88
2021/12/22 01:06:37;;;;;;;4.03;3.63;;;-2.00;99.90;;;;;;4826143;29;20106;-88
2021/12/22 01:09:05;;;;;;;5.95;5.38;;;-3.00;99.90;;;;;;4810823;29;20629;-88
2021/12/22 01:11:31;;;;;;;9.65;3.67;;;-2.10;99.90;;;;;;4826023;29;20081;-88
2021/12/22 01:13:56;;;;;;;6.78;4.45;;;-3.10;99.90;;;;;;4808060;29;20093;-88
2021/12/22 01:16:22;;;;;;;3.72;3.42;;;-2.80;99.90;;;;;;4808755;29;20042;-88
2021/12/22 01:18:48;;;;;;;6.68;3.90;;;-3.10;99.90;;;;;;4815245;29;20148;-88
2021/12/22 01:21:21;;;;;;;3.40;3.13;;;-3.10;99.90;;;;;;4823702;29;20099;-88
2021/12/22 01:24:13;;;;;;;6.70;3.90;;;-3.10;99.90;;;;;;4839581;29;20056;-88
2021/12/22 01:26:44;;;;;;;4.07;3.25;;;-3.20;99.90;;;;;;4817999;29;20569;-88
2021/12/22 01:29:10;;;;;;;8.93;4.47;;;-2.20;99.90;;;;;;4828108;29;20037;-88
2021/12/22 01:31:36;;;;;;;3.37;2.53;;;-3.10;99.90;;;;;;4800622;29;20505;-89
2021/12/22 01:34:02;;;;;;;6.90;3.75;;;-3.10;99.90;;;;;;4839557;29;20049;-89
2021/12/22 01:36:27;;;;;;;3.22;2.70;;;-3.20;99.90;;;;;;4799834;29;20110;-89
2021/12/22 01:38:55;;;;;;;3.03;2.83;;;-3.20;99.90;;;;;;4810715;29;20046;-89
2021/12/22 01:41:21;;;;;;;4.28;3.67;;;-3.10;99.90;;;;;;4828151;29;20081;-88
2021/12/22 01:43:48;;;;;;;8.65;4.28;;;-3.20;99.90;;;;;;4810890;29;20093;-89
2021/12/22 01:49:10;;;;;;;5.13;4.70;;;-3.20;99.90;;;;;;4836461;29;20057;-89
2021/12/22 01:51:45;;;;;;;2.92;2.60;;;-2.20;99.90;;;;;;4811934;29;20144;-89
2021/12/22 01:54:21;;;;;;;2.78;2.63;;;-3.30;99.90;;;;;;4826460;29;20057;-90
2021/12/22 01:56:54;;;;;;;3.65;3.35;;;-2.30;99.90;;;;;;4830530;29;20405;-89
2021/12/22 01:59:20;;;;;;;2.97;2.35;;;-3.30;99.90;;;;;;4831127;29;20367;-89
2021/12/22 02:01:48;;;;;;;6.10;3.83;;;-3.30;99.90;;;;;;4796305;29;20081;-89
2021/12/22 02:04:14;;;;;;;3.55;3.22;;;-3.40;99.90;;;;;;4804868;29;20054;-88
2021/12/22 02:06:47;;;;;;;5.10;3.60;;;-3.40;99.90;;;;;;4830280;29;20077;-88
2021/12/22 02:09:23;;;;;;;5.13;2.95;;;-3.60;99.90;;;;;;4811079;29;20042;-88
2021/12/22 02:11:49;;;;;;;6.68;3.10;;;-2.60;99.90;;;;;;4809898;29;20490;-88
2021/12/22 02:14:15;;;;;;;8.38;3.30;;;-3.40;99.90;;;;;;4810159;29;20052;-89
2021/12/22 02:16:41;;;;;;;3.95;2.92;;;-2.30;99.90;;;;;;4816794;29;20132;-88
2021/12/22 02:19:09;;;;;;;5.20;2.63;;;-3.50;99.90;;;;;;4823804;29;20053;-89
2021/12/22 02:21:42;;;;;;;3.20;2.80;;;-3.50;99.90;;;;;;4810905;29;20093;-88
2021/12/22 02:24:08;;;;;;;3.00;2.78;;;-3.50;99.90;;;;;;4802043;29;20116;-89
2021/12/22 02:26:46;;;;;;;6.10;3.13;;;-3.60;99.90;;;;;;4829773;29;20433;-89
2021/12/22 02:29:23;;;;;;;2.38;2.25;;;-3.60;99.90;;;;;;4828394;29;20092;-88
2021/12/22 02:32:00;;;;;;;3.35;3.05;;;-3.60;99.90;;;;;;4802520;29;20110;-90
2021/12/22 02:34:26;;;;;;;5.10;2.50;;;-3.60;99.90;;;;;;4825844;29;20409;-88
2021/12/22 02:36:52;;;;;;;3.13;2.83;;;-3.70;99.90;;;;;;4817260;29;20061;-88
2021/12/22 02:39:17;;;;;;;3.47;3.20;;;-3.70;99.90;;;;;;4824878;29;20090;-89
2021/12/22 02:41:43;;;;;;;7.40;3.97;;;-3.70;99.90;;;;;;4820474;29;20046;-88
2021/12/22 02:44:11;;;;;;;8.52;5.18;;;-3.70;99.90;;;;;;4835352;29;20048;-88
2021/12/22 02:46:38;;;;;;;7.22;3.17;;;-3.00;99.90;;;;;;4809269;29;20089;-88
2021/12/22 02:49:08;;;;;;;4.53;4.05;;;-3.20;99.90;;;;;;4825783;29;20379;-88
2021/12/22 02:51:35;;;;;;;7.22;3.55;;;-3.50;99.90;;;;;;4836549;29;20050;-88
2021/12/22 02:54:08;;;;;;;4.80;4.43;;;-3.70;99.90;;;;;;4828345;29;20506;-88
2021/12/22 02:57:06;;;;;;;3.47;3.28;;;-3.60;99.90;;;;;;4799514;29;20057;-88
2021/12/22 03:02:22;;;;;;;2.53;2.08;;;-2.50;99.90;;;;;;4844626;29;20094;-88
2021/12/22 03:04:56;;;;;;;3.08;2.88;;;-3.70;99.90;;;;;;4828264;29;20056;-88
2021/12/22 03:07:25;;;;;;;4.10;2.97;;;-3.70;99.90;;;;;;4822419;29;20085;-88
2021/12/22 03:10:00;;;;;;;5.15;3.58;;;-3.10;99.90;;;;;;4857852;29;20053;-88
2021/12/22 03:12:29;;;;;;;3.38;2.78;;;-3.20;99.90;;;;;;4837116;29;20088;-89
2021/12/22 03:14:55;;;;;;;5.22;4.00;;;-3.70;99.90;;;;;;4839212;29;20046;-88
2021/12/22 03:17:20;;;;;;;4.75;4.20;;;-3.70;99.90;;;;;;4830802;29;20048;-88
2021/12/22 03:19:46;;;;;;;4.07;3.75;;;-3.70;99.90;;;;;;4835890;29;20089;-89
2021/12/22 03:22:17;;;;;;;4.78;3.85;;;-3.70;99.90;;;;;;4811376;29;20042;-92
2021/12/22 03:24:44;;;;;;;4.78;4.22;;;-3.80;99.90;;;;;;4796587;29;20397;-88
2021/12/22 03:27:10;;;;;;;10.07;5.97;;;-3.80;99.90;;;;;;4828620;29;20050;-88
2021/12/22 03:29:38;;;;;;;5.05;3.85;;;-3.80;99.90;;;;;;4837555;29;20056;-88
2021/12/22 03:32:05;;;;;;;5.88;4.40;;;-3.30;99.90;;;;;;4832711;29;20049;-89
2021/12/22 03:34:31;;;;;;;4.65;3.55;;;-3.80;99.90;;;;;;4827500;29;20608;-88
2021/12/22 03:37:00;;;;;;;4.00;3.55;;;-3.30;99.90;;;;;;4840870;29;20061;-88
2021/12/22 03:39:27;;;;;;;8.07;3.78;;;-3.70;99.90;;;;;;4823884;29;20050;-88
2021/12/22 03:41:53;;;;;;;7.78;3.22;;;-3.70;99.90;;;;;;4830923;29;20058;-89
2021/12/22 03:44:19;;;;;;;6.60;4.15;;;-3.80;99.90;;;;;;4818202;29;20132;-88
2021/12/22 03:46:45;;;;;;;20.90;7.53;;;-2.70;99.90;;;;;;4843381;29;20401;-90
2021/12/22 03:49:12;;;;;;;6.40;5.67;;;-3.70;99.90;;;;;;4812453;29;20058;-88
2021/12/22 03:51:38;;;;;;;;;;;-2.80;99.90;;;;;;4822848;29;20049;-88
2021/12/22 03:54:09;;;;;;;3.58;3.25;;;-3.70;99.90;;;;;;4840656;29;19931;-88
2021/12/22 03:56:35;;;;;;;3.55;3.30;;;-3.70;99.90;;;;;;4842269;29;20041;-88
2021/12/22 03:59:01;;;;;;;3.95;3.17;;;-3.80;99.90;;;;;;4807616;29;20050;-88
2021/12/22 04:01:27;;;;;;;5.82;5.30;;;-3.80;99.90;;;;;;4837021;29;20549;-88
2021/12/22 04:03:57;;;;;;;4.97;4.45;;;-3.80;99.90;;;;;;4809316;29;20050;-88
2021/12/22 04:06:23;;;;;;;8.80;4.30;;;-3.80;99.90;;;;;;4829997;29;20090;-88
2021/12/22 04:08:48;;;;;;;5.00;3.92;;;-3.80;99.90;;;;;;4836041;29;20426;-88
2021/12/22 04:11:14;;;;;;;10.57;7.05;;;-3.80;99.90;;;;;;4825629;29;20089;-88
2021/12/22 04:13:40;;;;;;;4.63;3.17;;;-3.80;99.90;;;;;;4814207;29;20058;-88
2021/12/22 04:16:05;;;;;;;4.15;2.95;;;-3.50;99.90;;;;;;4827324;29;20089;-88
2021/12/22 04:18:31;;;;;;;6.93;4.47;;;-3.90;99.90;;;;;;4815211;29;20077;-87
2021/12/22 04:20:57;;;;;;;3.55;3.25;;;-3.20;99.90;;;;;;4816205;29;20053;-88
2021/12/22 04:23:23;;;;;;;12.65;4.28;;;-3.90;99.90;;;;;;4827498;29;20052;-88
2021/12/22 04:25:48;;;;;;;13.15;6.75;;;-3.50;99.90;;;;;;4837211;29;20041;-88
2021/12/22 04:28:14;;;;;;;4.30;4.00;;;-3.90;99.90;;;;;;4825024;29;20048;-87
2021/12/22 04:30:45;;;;;;;5.93;4.67;;;-3.50;99.90;;;;;;4833017;29;20064;-88
2021/12/22 04:33:11;;;;;;;3.50;3.20;;;-3.90;99.90;;;;;;4818768;29;20185;-88
2021/12/22 04:35:37;;;;;;;5.40;4.93;;;-3.90;99.90;;;;;;4841070;29;20089;-87
2021/12/22 04:38:03;;;;;;;5.93;4.47;;;-3.90;99.90;;;;;;4842139;29;20057;-87
2021/12/22 04:40:29;;;;;;;5.65;4.78;;;-4.00;99.90;;;;;;4821493;29;20114;-87
2021/12/22 04:42:54;;;;;;;4.65;4.15;;;-4.00;99.90;;;;;;4814676;29;20520;-87
2021/12/22 04:45:21;;;;;;;11.48;6.07;;;-3.20;99.90;;;;;;4811134;29;20045;-87
2021/12/22 04:47:47;;;;;;;6.03;4.93;;;-4.50;99.90;;;;;;4824528;29;20055;-87
2021/12/22 04:50:17;;;;;;;10.30;4.28;;;-4.00;99.90;;;;;;4796827;29;20054;-87
2021/12/22 04:52:54;;;;;;;4.88;4.45;;;-3.60;99.90;;;;;;4834021;29;20056;-87
2021/12/22 04:55:20;;;;;;;10.40;4.50;;;-4.00;99.90;;;;;;4826807;29;20486;-88
2021/12/22 04:57:46;;;;;;;7.05;3.50;;;-4.00;99.90;;;;;;4795731;29;20471;-87
2021/12/22 05:00:14;;;;;;;5.53;4.95;;;-3.70;99.90;;;;;;4836496;29;20133;-87
2021/12/22 05:02:40;;;;;;;6.53;4.50;;;-4.10;99.90;;;;;;4816128;29;20132;-86
2021/12/22 05:05:07;;;;;;;3.88;3.38;;;-4.00;99.90;;;;;;4831465;29;20080;-87
2021/12/22 05:07:32;;;;;;;7.53;5.75;;;-4.00;99.90;;;;;;4828297;29;20462;-87
2021/12/22 05:09:58;;;;;;;7.32;3.90;;;-4.10;99.90;;;;;;4807497;29;20137;-87
2021/12/22 05:12:24;;;;;;;5.13;4.20;;;-3.00;99.90;;;;;;4824930;29;20052;-87
2021/12/22 05:14:50;;;;;;;7.45;6.72;;;-4.10;99.90;;;;;;4835760;29;20083;-87
2021/12/22 05:17:21;;;;;;;3.45;3.25;;;-4.10;99.90;;;;;;4828746;29;20065;-87
2021/12/22 05:19:47;;;;;;;8.77;5.38;;;-3.30;99.90;;;;;;4822454;29;20080;-87
2021/12/22 05:22:13;;;;;;;12.47;5.03;;;-4.10;99.90;;;;;;4811948;29;20074;-87
2021/12/22 05:24:39;;;;;;;6.13;4.45;;;-4.10;99.90;;;;;;4792903;29;20092;-87
2021/12/22 05:27:11;;;;;;;16.80;6.45;;;-4.10;99.90;;;;;;4804577;29;20051;-86
2021/12/22 05:29:37;;;;;;;6.68;5.38;;;-4.20;99.90;;;;;;4829615;29;20058;-86
2021/12/22 05:32:04;;;;;;;5.70;5.30;;;-4.20;99.90;;;;;;4815121;29;20141;-87
2021/12/22 05:34:30;;;;;;;3.30;2.97;;;-4.20;99.90;;;;;;4825905;29;20054;-86
2021/12/22 05:36:56;;;;;;;15.00;4.25;;;-4.20;99.90;;;;;;4827484;29;20454;-86
2021/12/22 05:39:21;;;;;;;5.25;3.50;;;-4.20;99.90;;;;;;4805628;29;20059;-87
2021/12/22 05:41:47;;;;;;;7.70;3.97;;;-3.60;99.90;;;;;;4809775;29;20411;-86
2021/12/22 05:44:13;;;;;;;5.20;3.45;;;-4.20;99.90;;;;;;4809405;29;20058;-86
2021/12/22 05:46:39;;;;;;;5.57;4.80;;;-4.20;99.90;;;;;;4782352;29;20443;-86
2021/12/22 05:49:05;;;;;;;7.57;5.43;;;-4.20;99.90;;;;;;4808232;29;20069;-86
2021/12/22 05:51:33;;;;;;;6.93;4.15;;;-4.20;99.90;;;;;;4805941;29;20597;-86
2021/12/22 05:53:59;;;;;;;5.53;4.15;;;-4.30;99.90;;;;;;4812305;29;20050;-86
2021/12/22 05:56:30;;;;;;;9.23;6.28;;;-4.20;99.90;;;;;;4815771;29;20512;-87
2021/12/22 05:58:56;;;;;;;5.20;4.25;;;-4.20;99.90;;;;;;4783469;29;20046;-87
2021/12/22 06:01:23;;;;;;;3.88;3.58;;;-4.30;99.90;;;;;;4815482;29;20057;-87
2021/12/22 06:03:48;;;;;;;5.43;4.93;;;-4.30;99.90;;;;;;4808053;29;20130;-86
2021/12/22 06:06:15;;;;;;;14.38;6.68;;;-4.30;99.90;;;;;;4802434;29;20082;-87
2021/12/22 06:08:40;;;;;;;4.68;4.30;;;-3.40;99.90;;;;;;4793466;29;20054;-86
2021/12/22 06:11:06;;;;;;;8.77;4.35;;;-4.30;99.90;;;;;;4805754;29;20085;-87
2021/12/22 06:13:35;;;;;;;5.68;5.22;;;-4.30;99.90;;;;;;4822859;29;20046;-86
2021/12/22 06:16:00;;;;;;;5.97;5.35;;;-3.50;99.90;;;;;;4807751;29;20046;-88
2021/12/22 06:18:27;;;;;;;4.93;4.63;;;-4.30;99.90;;;;;;4800757;29;20103;-86
2021/12/22 06:20:53;;;;;;;9.93;5.25;;;-4.20;99.90;;;;;;4799216;29;20094;-87
2021/12/22 06:23:19;;;;;;;6.07;4.10;;;-4.30;99.90;;;;;;4809605;29;20078;-86
2021/12/22 06:25:44;;;;;;;7.03;4.53;;;-4.30;99.90;;;;;;4825956;29;20053;-86
2021/12/22 06:28:10;;;;;;;7.75;5.47;;;-4.30;99.90;;;;;;4810386;29;20064;-86
2021/12/22 06:30:36;;;;;;;2.72;2.47;;;-4.30;99.90;;;;;;4813297;29;20050;-86
2021/12/22 06:33:02;;;;;;;5.25;4.72;;;-4.30;99.90;;;;;;4815055;29;20398;-86
2021/12/22 06:35:28;;;;;;;4.90;4.43;;;-4.30;99.90;;;;;;4812983;29;20046;-86
2021/12/22 06:37:53;;;;;;;8.35;7.38;;;-4.20;99.90;;;;;;4811557;29;20535;-86
2021/12/22 06:40:20;;;;;;;5.18;3.85;;;-3.90;99.90;;;;;;4809814;29;20051;-85
2021/12/22 06:42:46;;;;;;;2.75;2.60;;;-4.20;99.90;;;;;;4813858;29;20137;-86
2021/12/22 06:45:14;;;;;;;5.20;4.78;;;-3.70;99.90;;;;;;4795011;29;20172;-81
2021/12/22 06:47:40;;;;;;;10.80;6.18;;;-4.20;99.90;;;;;;4802631;29;20401;-82
2021/12/22 06:50:08;;;;;;;6.13;5.45;;;-4.20;99.90;;;;;;4797234;29;20125;-81
2021/12/22 06:52:33;;;;;;;6.45;4.43;;;-4.30;99.90;;;;;;4815025;29;20383;-86
2021/12/22 06:55:02;;;;;;;9.52;5.13;;;-4.30;99.90;;;;;;4805668;29;20049;-87
2021/12/22 06:57:29;;;;;;;5.10;3.97;;;-3.80;99.90;;;;;;4810286;29;20183;-82
2021/12/22 06:59:57;;;;;;;4.45;3.22;;;-4.30;99.90;;;;;;4818484;29;20046;-86
2021/12/22 07:02:24;;;;;;;4.63;4.25;;;-4.30;99.90;;;;;;4801373;29;20094;-89
2021/12/22 07:04:50;;;;;;;2.65;2.45;;;-4.30;99.90;;;;;;4791184;29;20519;-88
2021/12/22 07:07:16;;;;;;;5.30;4.93;;;-4.30;99.90;;;;;;4799598;29;20056;-88
2021/12/22 07:09:42;;;;;;;1.85;1.83;;;-4.30;99.90;;;;;;4805892;29;20050;-88
2021/12/22 07:12:10;;;;;;;4.45;3.85;;;-3.60;99.90;;;;;;4783420;29;20058;-87
2021/12/22 07:14:36;;;;;;;4.57;3.13;;;-4.30;99.90;;;;;;4817661;29;20087;-87
2021/12/22 07:17:01;;;;;;;4.63;4.30;;;-3.40;99.90;;;;;;4822707;29;20090;-88
2021/12/22 07:19:27;;;;;;;8.52;4.97;;;-4.30;99.90;;;;;;4794981;29;20494;-85
2021/12/22 07:21:54;;;;;;;10.68;6.03;;;-4.30;99.90;;;;;;4809501;29;20057;-89
2021/12/22 07:24:23;;;;;;;6.00;5.50;;;-4.30;99.90;;;;;;4775654;29;20059;-94
2021/12/22 07:26:50;;;;;;;5.30;3.85;;;-4.30;99.90;;;;;;4764375;29;20055;-94
2021/12/22 07:29:19;;;;;;;5.32;2.90;;;-3.80;99.90;;;;;;4826187;29;20078;-90
2021/12/22 07:31:52;;;;;;;4.20;3.80;;;-3.70;99.90;;;;;;4800893;29;20057;-89
2021/12/22 07:35:07;;;;;;;6.78;5.15;;;-4.50;99.90;;;;;;4813979;29;20132;-90
2021/12/22 07:37:42;;;;;;;13.48;4.53;;;-4.30;99.90;;;;;;4800517;29;20053;-90
2021/12/22 07:40:14;;;;;;;4.80;4.30;;;-3.50;99.90;;;;;;4815474;29;20050;-91
2021/12/22 07:42:41;;;;;;;6.80;5.03;;;-3.70;99.90;;;;;;4800221;29;20435;-82
2021/12/22 07:45:08;;;;;;;4.63;3.95;;;-4.40;99.90;;;;;;4815774;29;20053;-85
2021/12/22 07:47:38;;;;;;;6.95;4.65;;;-4.30;99.90;;;;;;4822001;29;20050;-86
2021/12/22 07:50:06;;;;;;;6.15;5.10;;;-4.30;99.90;;;;;;4798785;29;20054;-87
2021/12/22 07:52:32;;;;;;;8.25;4.35;;;-4.30;99.90;;;;;;4809515;29;20054;-85
2021/12/22 07:54:58;;;;;;;4.68;3.28;;;-4.30;99.90;;;;;;4807860;29;20057;-84
2021/12/22 07:57:24;;;;;;;7.32;3.20;;;-4.30;99.90;;;;;;4802353;29;20050;-85
2021/12/22 07:59:50;;;;;;;8.83;5.13;;;-4.30;99.90;;;;;;4805180;29;20047;-84
2021/12/22 08:02:18;;;;;;;5.45;4.70;;;-4.30;99.90;;;;;;4804576;29;20062;-84
2021/12/22 08:04:44;;;;;;;4.45;4.10;;;-4.20;99.90;;;;;;4801858;29;20414;-86
2021/12/22 08:07:12;;;;;;;11.55;6.15;;;-4.20;99.90;;;;;;4804565;29;20050;-86
2021/12/22 08:09:38;;;;;;;6.60;4.40;;;-4.20;99.90;;;;;;4806439;29;20387;-85
2021/12/22 08:12:04;;;;;;;4.82;4.43;;;-3.90;99.90;;;;;;4789847;29;20057;-84
2021/12/22 08:14:35;;;;;;;6.90;5.07;;;-4.10;99.90;;;;;;4783692;29;20057;-85
2021/12/22 08:17:01;;;;;;;5.68;5.13;;;-4.00;99.90;;;;;;4785082;29;20046;-83
2021/12/22 08:19:26;;;;;;;7.28;4.15;;;-3.90;99.90;;;;;;4806453;29;20103;-84
2021/12/22 08:21:52;;;;;;;6.45;4.85;;;-3.80;99.90;;;;;;4804831;29;20057;-87
2021/12/22 08:24:18;;;;;;;3.45;3.15;;;-3.60;99.90;;;;;;4804600;29;20087;-85
2021/12/22 08:26:44;;;;;;;6.35;4.07;;;-3.50;99.90;;;;;;4782259;29;20050;-85
2021/12/22 08:29:10;;;;;;;5.85;5.32;;;-2.90;99.90;;;;;;4790458;29;20046;-85
2021/12/22 08:31:35;;;;;;;4.47;4.13;;;-3.40;99.90;;;;;;4794679;29;20096;-83
2021/12/22 08:34:01;;;;;;;9.75;4.60;;;-3.40;99.90;;;;;;4799533;29;20054;-84
2021/12/22 08:39:14;;;;;;;6.00;5.13;;;-2.60;99.90;;;;;;4794396;29;20115;-87
2021/12/22 08:41:41;;;;;;;5.35;4.95;;;-2.10;99.90;;;;;;4791071;29;20520;-87
2021/12/22 08:44:09;;;;;;;5.95;3.85;;;-2.70;99.90;;;;;;4807305;29;20062;-89
2021/12/22 08:46:37;;;;;;;4.57;4.18;;;-2.80;99.90;;;;;;4800313;29;20038;-89
2021/12/22 08:49:04;;;;;;;4.90;4.35;;;-2.90;99.90;;;;;;4810644;29;20133;-90
2021/12/22 08:51:32;;;;;;;9.25;6.15;;;-2.90;99.90;;;;;;4789100;29;20074;-86
2021/12/22 08:54:02;;;;;;;8.68;4.90;;;-2.90;99.90;;;;;;4791137;29;20059;-88
2021/12/22 08:56:28;;;;;;;;;;;-1.90;99.90;;;;;;4808012;29;20612;-86
2021/12/22 08:58:54;;;;;;;4.25;3.85;;;-2.80;99.90;;;;;;4805031;29;19928;-87
2021/12/22 09:01:25;;;;;;;11.98;6.88;;;-2.70;99.90;;;;;;4784879;29;20125;-85
2021/12/22 09:03:51;;;;;;;4.30;3.90;;;-2.40;99.90;;;;;;4776886;29;20042;-89
2021/12/22 09:06:16;;;;;;;6.53;3.93;;;-2.60;99.90;;;;;;4786619;29;20107;-85
2021/12/22 09:08:43;;;;;;;7.50;4.43;;;-1.40;99.90;;;;;;4805239;29;20309;-86
2021/12/22 09:11:10;;;;;;;6.85;4.45;;;-2.40;99.90;;;;;;4778862;29;20057;-86
2021/12/22 09:13:37;;;;;;;9.38;4.68;;;-1.50;99.90;;;;;;4796350;29;20054;-84
2021/12/22 09:16:03;;;;;;;8.80;4.53;;;-1.30;99.90;;;;;;4798199;29;20062;-85
2021/12/22 09:18:29;;;;;;;7.10;4.60;;;-2.30;99.90;;;;;;4823379;29;20046;-86
2021/12/22 09:20:55;;;;;;;10.10;5.03;;;-1.50;99.90;;;;;;4806252;29;20077;-86
2021/12/22 09:23:21;;;;;;;11.80;4.57;;;-1.40;99.90;;;;;;4790870;29;20050;-85
2021/12/22 09:25:47;;;;;;;5.47;4.72;;;-1.80;99.90;;;;;;4807036;29;20561;-86
2021/12/22 09:28:13;;;;;;;13.80;7.15;;;-2.30;99.90;;;;;;4821263;29;20054;-85
2021/12/22 09:30:43;;;;;;;11.60;5.13;;;-2.30;99.90;;;;;;4788437;29;20058;-86
2021/12/22 09:33:13;;;;;;;6.20;4.47;;;-2.30;99.90;;;;;;4803306;29;20114;-85
2021/12/22 09:35:40;;;;;;;11.63;4.70;;;-2.30;99.90;;;;;;4803699;29;20065;-85
2021/12/22 09:38:07;;;;;;;10.20;4.63;;;-2.30;99.90;;;;;;4806311;29;20058;-84
2021/12/22 09:40:33;;;;;;;;;;;-1.20;99.90;;;;;;4823302;29;20170;-85
2021/12/22 09:42:58;;;;;;;5.25;4.43;;;-2.20;99.90;;;;;;4807341;29;19960;-86
2021/12/22 09:45:26;;;;;;;4.93;3.42;;;-2.00;99.90;;;;;;4806840;29;20355;-86
2021/12/22 09:48:19;;;;;;;9.13;4.75;;;-1.90;99.90;;;;;;4792720;29;20085;-85
2021/12/22 09:52:16;;;;;;;15.73;4.38;;;-1.80;99.90;;;;;;4809669;29;20407;-86
2021/12/22 09:53:46;;;;;;;9.48;4.13;;;-1.60;99.90;;;;;;4810951;29;20090;-85
2021/12/22 09:56:14;;;;;;;10.00;4.88;;;-1.40;99.90;;;;;;4809519;29;20039;-86
2021/12/22 09:58:43;;;;;;;4.57;3.42;;;-0.90;99.90;;;;;;4793594;29;20050;-88
2021/12/22 10:01:10;;;;;;;12.27;5.90;;;-1.20;99.90;;;;;;4791881;29;20054;-85
2021/12/22 10:03:35;;;;;;;;;;;-1.40;99.90;;;;;;4795429;29;20058;-86
2021/12/22 10:06:02;;;;;;;8.38;4.47;;;-0.20;99.90;;;;;;4810804;29;20376;-86
2021/12/22 10:08:28;;;;;;;8.40;5.25;;;-1.20;99.90;;;;;;4810595;29;20197;-86
2021/12/22 10:11:09;;;;;;;8.90;3.95;;;-0.30;99.90;;;;;;4795666;29;20119;-86
2021/12/22 10:13:37;;;;;;;11.10;5.28;;;-1.10;99.90;;;;;;4810685;29;20050;-86
2021/12/22 10:16:15;;;;;;;11.20;4.90;;;-1.00;99.90;;;;;;4810760;29;20053;-86
2021/12/22 10:18:41;;;;;;;9.95;5.22;;;-0.70;99.90;;;;;;4810746;29;20509;-86
2021/12/22 10:21:11;;;;;;;9.32;5.55;;;0.40;99.90;;;;;;4795728;29;20054;-86
2021/12/22 10:23:46;;;;;;;10.68;5.93;;;-0.60;99.90;;;;;;4810816;29;20096;-86
2021/12/22 10:26:16;;;;;;;11.98;6.30;;;-0.40;99.90;;;;;;4810071;29;20509;-86
2021/12/22 10:28:55;;;;;;;15.57;7.45;;;0.80;99.90;;;;;;4810540;29;20509;-86
2021/12/22 10:31:40;;;;;;;12.07;6.38;;;-0.10;99.90;;;;;;4810120;29;20536;-87
2021/12/22 10:34:13;;;;;;;10.38;5.60;;;-0.10;99.90;;;;;;4807911;29;20054;-87
2021/12/22 10:36:53;;;;;;;12.15;5.90;;;0.00;99.90;;;;;;4803753;29;20050;-88
2021/12/22 10:39:27;;;;;;;9.65;5.90;;;0.10;99.90;;;;;;4809827;29;20046;-87
2021/12/22 10:42:08;;;;;;;6.00;5.10;;;0.10;99.90;;;;;;4791935;29;20054;-87
2021/12/22 10:44:39;;;;;;;8.07;5.30;;;0.20;99.90;;;;;;4806983;29;20062;-88
2021/12/22 10:49:14;;;;;;;10.55;6.03;;;0.30;99.90;;;;;;4815343;29;20073;-84
2021/12/22 10:50:24;;;;;;;15.68;5.65;;;1.20;99.90;;;;;;4807453;29;20057;-84
2021/12/22 10:52:50;;;;;;;9.40;5.78;;;0.30;99.90;;;;;;4810134;29;20053;-83
2021/12/22 10:55:16;;;;;;;9.70;5.93;;;1.00;99.90;;;;;;4794382;29;20398;-86
2021/12/22 10:57:48;;;;;;;15.07;6.88;;;0.10;99.90;;;;;;4816618;29;20083;-86
2021/12/22 11:00:24;;;;;;;7.97;6.53;;;0.10;99.90;;;;;;4791895;29;20047;-86
2021/12/22 11:03:13;;;;;;;12.25;5.57;;;0.10;99.90;;;;;;4790503;29;20517;-88
2021/12/22 11:05:49;;;;;;;8.95;5.10;;;0.80;99.90;;;;;;4808746;29;20138;-87
2021/12/22 11:08:18;;;;;;;8.40;5.72;;;0.80;99.90;;;;;;4806448;29;20051;-85
2021/12/22 11:10:43;;;;;;;10.07;5.70;;;0.50;99.90;;;;;;4811324;29;20191;-88
2021/12/22 11:13:09;;;;;;;10.73;5.90;;;1.10;99.90;;;;;;4780566;29;20554;-89
2021/12/22 11:15:43;;;;;;;6.78;5.18;;;0.80;99.90;;;;;;4793950;29;20057;-87
2021/12/22 11:18:25;;;;;;;8.60;6.05;;;0.80;99.90;;;;;;4805446;29;20054;-90
2021/12/22 11:21:16;;;;;;;11.27;6.03;;;0.90;99.90;;;;;;4797290;29;20053;-94
2021/12/22 11:23:48;;;;;;;6.93;6.00;;;1.00;99.90;;;;;;4795123;29;20054;-88
2021/12/22 11:26:14;;;;;;;9.47;6.80;;;1.10;99.90;;;;;;4793810;29;20054;-86
2021/12/22 11:28:43;;;;;;;9.27;6.22;;;1.20;99.90;;;;;;4787059;29;20637;-88
2021/12/22 11:31:10;;;;;;;7.68;5.40;;;1.20;99.90;;;;;;4801822;29;20081;-84
2021/12/22 11:33:40;;;;;;;7.35;5.53;;;1.40;99.90;;;;;;4811754;29;20054;-87
2021/12/22 11:36:10;;;;;;;12.63;5.57;;;2.00;99.90;;;;;;4816211;29;20060;-87
2021/12/22 11:38:36;;;;;;;8.85;5.63;;;3.00;99.90;;;;;;4835817;29;20520;-88
2021/12/22 11:41:12;;;;;;;7.70;5.93;;;3.20;99.90;;;;;;4806981;29;20543;-88
2021/12/22 11:43:44;;;;;;;9.75;5.93;;;3.20;99.90;;;;;;4815196;29;20050;-88
2021/12/22 11:46:11;;;;;;;10.68;5.80;;;3.10;99.90;;;;;;4811954;29;20106;-88
2021/12/22 11:48:37;;;;;;;;;;;2.80;99.90;;;;;;4812278;29;20405;-87
2021/12/22 11:51:22;;;;;;;6.43;4.10;;;2.10;99.90;;;;;;4827541;29;19924;-87
2021/12/22 11:53:57;;;;;;;7.75;5.57;;;3.10;99.90;;;;;;4827125;29;20085;-87
2021/12/22 11:56:54;;;;;;;7.43;5.88;;;2.40;99.90;;;;;;4844030;29;20053;-88
2021/12/22 11:59:36;;;;;;;6.07;5.30;;;1.60;99.90;;;;;;4845259;29;20052;-87
2021/12/22 12:02:24;;;;;;;9.88;5.65;;;1.50;99.90;;;;;;4813681;29;20474;-87
2021/12/22 12:04:53;;;;;;;6.90;5.13;;;1.50;99.90;;;;;;4835591;29;20505;-87
2021/12/22 12:07:46;;;;;;;11.27;6.03;;;0.60;99.90;;;;;;4845466;29;20050;-87
2021/12/22 12:10:40;;;;;;;9.20;5.60;;;1.30;99.90;;;;;;4795342;29;20046;-87
2021/12/22 12:13:37;;;;;;;7.90;5.50;;;1.20;99.90;;;;;;4838118;29;20053;-88
2021/12/22 12:22:23;;;;;;;12.13;6.32;;;1.50;99.90;;;;;;4817143;29;20084;-85
2021/12/22 12:25:11;;;;;;;8.77;5.93;;;0.80;99.90;;;;;;4822630;29;20049;-85
2021/12/22 12:27:52;;;;;;;13.10;6.13;;;0.70;99.90;;;;;;4808792;29;20053;-86
2021/12/22 12:30:39;;;;;;;8.38;5.38;;;0.80;99.90;;;;;;4822586;29;20132;-85
2021/12/22 12:33:07;;;;;;;7.30;5.13;;;0.90;99.90;;;;;;4826030;29;20054;-85
2021/12/22 12:35:55;;;;;;;9.85;5.43;;;1.10;99.90;;;;;;5013786;27;4193155;-86
2021/12/22 12:38:24;;;;;;;10.13;5.32;;;1.40;99.90;;;;;;5132035;27;20096;-86
2021/12/22 12:41:11;;;;;;;8.30;5.25;;;1.40;99.90;;;;;;5131172;27;20492;-87
2021/12/22 12:43:47;;;;;;;5.22;4.55;;;2.20;99.90;;;;;;5111308;27;20035;-87
2021/12/22 12:46:19;;;;;;;8.13;5.90;;;1.50;99.90;;;;;;5124838;28;20051;-87
2021/12/22 12:49:15;;;;;;;6.20;4.90;;;1.60;99.90;;;;;;5112106;28;20051;-87
2021/12/22 12:51:46;;;;;;;9.07;6.00;;;1.50;99.90;;;;;;5096161;28;20067;-86
2021/12/22 12:54:18;;;;;;;12.13;6.75;;;1.50;99.90;;;;;;5112795;28;20094;-86
2021/12/22 12:56:46;;;;;;;11.82;6.35;;;2.80;99.90;;;;;;5095358;28;20070;-86
2021/12/22 12:59:40;;;;;;;8.30;5.82;;;1.60;99.90;;;;;;5095917;28;20461;-86
2021/12/22 13:02:19;;;;;;;9.13;5.57;;;1.60;99.90;;;;;;5105005;28;20124;-86
2021/12/22 13:04:45;;;;;;;7.47;5.85;;;1.50;99.90;;;;;;5095195;28;20046;-86
2021/12/22 13:07:16;;;;;;;8.88;6.70;;;1.50;99.90;;;;;;5095711;28;20047;-86
2021/12/22 13:09:45;;;;;;;7.15;4.93;;;1.40;99.90;;;;;;5112034;28;20051;-87
2021/12/22 13:12:19;;;;;;;12.38;6.63;;;1.40;99.90;;;;;;5112428;28;20047;-87
2021/12/22 13:17:42;;;;;;;6.50;5.43;;;1.30;99.90;;;;;;5112217;28;20577;-87